Time;durP1;ratioP1;P1;durP2;ratioP2;P2;SDS_P1;SDS_P2;PMS_P1;PMS_P2;Temp;Humidity;BMP_temperature;BMP_pressure;BME280_temperature;BME280_humidity;BME280_pressure;Samples;Min_cycle;Max_cycle;Signal;HPM_P1;HPM_P2
2023/07/25 00:01:19;;;;;;;11.82;2.33;;;;;;;-144.48;100.00;62369.91;5040126;28;20356;-67
2023/07/25 00:03:47;;;;;;;3.13;1.77;;;;;;;-144.48;100.00;62369.91;5029105;28;20624;-67
2023/07/25 00:06:13;;;;;;;6.68;2.20;;;;;;;-144.48;100.00;62369.91;5029200;28;20396;-66
2023/07/25 00:08:38;;;;;;;4.88;2.60;;;;;;;-144.48;100.00;62369.91;5008456;28;20040;-66
2023/07/25 00:11:04;;;;;;;4.95;1.83;;;;;;;-144.48;100.00;62369.91;5029315;28;20105;-66
2023/07/25 00:13:30;;;;;;;6.32;1.83;;;;;;;-144.48;100.00;62369.91;5028593;28;20036;-65
2023/07/25 00:15:56;;;;;;;13.20;2.65;;;;;;;-144.48;100.00;62369.91;5029671;28;20120;-66
2023/07/25 00:18:21;;;;;;;9.70;2.10;;;;;;;-144.48;100.00;62369.91;5029924;28;20113;-67
2023/07/25 00:20:47;;;;;;;7.43;2.85;;;;;;;-144.48;100.00;62369.91;5029373;28;20100;-64
2023/07/25 00:23:12;;;;;;;4.60;2.30;;;;;;;-144.48;100.00;62369.91;5028350;28;20442;-67
2023/07/25 00:25:37;;;;;;;7.10;2.17;;;;;;;-144.48;100.00;62369.91;5028902;28;20027;-63
2023/07/25 00:28:03;;;;;;;9.07;2.63;;;;;;;-144.48;100.00;62369.91;5029228;28;20043;-62
2023/07/25 00:30:29;;;;;;;10.73;2.83;;;;;;;-144.48;100.00;62369.91;5028977;28;20021;-67
2023/07/25 00:32:54;;;;;;;10.80;2.70;;;;;;;-144.48;100.00;62369.91;5028980;28;20021;-64
2023/07/25 00:35:19;;;;;;;6.20;2.38;;;;;;;-144.48;100.00;62369.91;5021286;28;20469;-65
2023/07/25 00:37:45;;;;;;;6.47;2.80;;;;;;;-144.48;100.00;62369.91;5028928;28;20424;-66
2023/07/25 00:40:10;;;;;;;9.13;2.70;;;;;;;-144.48;100.00;62369.91;5029111;28;20029;-67
2023/07/25 00:42:36;;;;;;;5.75;2.55;;;;;;;-144.48;100.00;62369.91;5029492;28;20498;-64
2023/07/25 00:45:01;;;;;;;8.13;2.47;;;;;;;-144.48;100.00;62369.91;5028465;28;20408;-67
2023/07/25 00:47:27;;;;;;;5.05;2.53;;;;;;;-144.48;100.00;62369.91;5029308;28;20071;-66
2023/07/25 00:49:52;;;;;;;5.25;2.33;;;;;;;-144.48;100.00;62369.91;5031928;28;20018;-63
2023/07/25 00:52:17;;;;;;;13.30;2.80;;;;;;;-144.48;100.00;62369.91;5032904;28;20033;-66
2023/07/25 00:54:48;;;;;;;9.13;2.58;;;;;;;-144.48;100.00;62369.91;5032057;28;20029;-66
2023/07/25 00:57:16;;;;;;;8.05;2.60;;;;;;;-144.48;100.00;62369.91;5015524;28;20265;-64
2023/07/25 00:59:41;;;;;;;6.65;2.38;;;;;;;-144.48;100.00;62369.91;5014767;28;20116;-67
2023/07/25 01:02:07;;;;;;;10.02;2.70;;;;;;;-144.48;100.00;62369.91;5032878;28;20160;-62
2023/07/25 01:04:33;;;;;;;9.48;2.35;;;;;;;-144.48;100.00;62369.91;5031719;28;20029;-62
2023/07/25 01:06:59;;;;;;;8.75;2.88;;;;;;;-144.48;100.00;62369.91;5031734;28;20032;-65
2023/07/25 01:09:39;;;;;;;8.23;2.50;;;;;;;-144.48;100.00;62369.91;5032228;28;20032;-66
2023/07/25 01:12:05;;;;;;;7.40;2.40;;;;;;;-144.48;100.00;62369.91;5026596;28;20021;-62
2023/07/25 01:14:32;;;;;;;6.15;2.30;;;;;;;-144.48;100.00;62369.91;5032064;28;20151;-66
2023/07/25 01:17:00;;;;;;;7.28;2.47;;;;;;;-144.48;100.00;62369.91;5032970;28;20028;-67
2023/07/25 01:19:28;;;;;;;;;;;;;;;-144.48;100.00;62369.91;5032670;28;20108;-65
2023/07/25 01:21:53;;;;;;;11.85;2.20;;;;;;;-144.48;100.00;62369.91;5032741;28;20108;-67
2023/07/25 01:24:19;;;;;;;8.98;2.35;;;;;;;-144.48;100.00;62369.91;5031721;28;20029;-63
2023/07/25 01:26:44;;;;;;;5.75;2.70;;;;;;;-144.48;100.00;62369.91;5013493;28;20021;-67
2023/07/25 01:29:09;;;;;;;9.15;2.60;;;;;;;-144.48;100.00;62369.91;5013079;28;20056;-63
2023/07/25 01:31:34;;;;;;;7.53;3.25;;;;;;;-144.48;100.00;62369.91;5031586;28;20034;-64
2023/07/25 01:34:00;;;;;;;5.63;2.90;;;;;;;-144.48;100.00;62369.91;5026137;28;20025;-67
2023/07/25 01:36:25;;;;;;;9.77;3.20;;;;;;;-144.48;100.00;62369.91;5028093;28;20037;-63
2023/07/25 01:38:50;;;;;;;6.43;2.60;;;;;;;-144.48;100.00;62369.91;5030269;28;20021;-66
2023/07/25 01:41:16;;;;;;;9.25;3.42;;;;;;;-144.48;100.00;62369.91;5031590;28;20025;-67
2023/07/25 01:43:41;;;;;;;5.95;2.55;;;;;;;-144.48;100.00;62369.91;5030097;28;20021;-68
2023/07/25 01:46:06;;;;;;;9.98;3.00;;;;;;;-144.48;100.00;62369.91;5031471;28;20035;-66
2023/07/25 01:48:32;;;;;;;4.82;2.70;;;;;;;-144.48;100.00;62369.91;5031123;28;20029;-65
2023/07/25 01:50:57;;;;;;;9.82;2.70;;;;;;;-144.48;100.00;62369.91;5031116;28;20022;-66
2023/07/25 01:53:22;;;;;;;15.30;3.90;;;;;;;-144.48;100.00;62369.91;5030227;28;20037;-67
2023/07/25 01:55:48;;;;;;;10.35;3.80;;;;;;;-144.48;100.00;62369.91;5030594;28;20503;-62
2023/07/25 01:58:13;;;;;;;11.77;3.42;;;;;;;-144.48;100.00;62369.91;5030756;28;20076;-64
2023/07/25 02:00:39;;;;;;;10.85;3.58;;;;;;;-144.48;100.00;62369.91;5031082;28;20294;-67
2023/07/25 02:03:04;;;;;;;7.82;3.25;;;;;;;-144.48;100.00;62369.91;5030635;28;20396;-64
2023/07/25 02:05:29;;;;;;;8.18;3.80;;;;;;;-144.48;100.00;62369.91;5030111;28;20022;-66
2023/07/25 02:07:55;;;;;;;11.60;3.42;;;;;;;-144.48;100.00;62369.91;5028169;28;20025;-66
2023/07/25 02:10:20;;;;;;;11.55;3.45;;;;;;;-144.48;100.00;62369.91;5026460;28;20033;-67
2023/07/25 02:12:45;;;;;;;17.40;4.30;;;;;;;-144.48;100.00;62369.91;5030814;28;20036;-67
2023/07/25 02:15:11;;;;;;;6.35;3.38;;;;;;;-144.48;100.00;62369.91;5029343;28;20055;-65
2023/07/25 02:17:36;;;;;;;6.57;3.30;;;;;;;-144.48;100.00;62369.91;5030764;28;20132;-66
2023/07/25 02:20:02;;;;;;;11.90;3.75;;;;;;;-144.48;100.00;62369.91;5012418;28;20478;-66
2023/07/25 02:22:27;;;;;;;8.48;3.50;;;;;;;-144.48;100.00;62369.91;4993252;28;1068165;-63
2023/07/25 02:24:52;;;;;;;8.63;3.03;;;;;;;-144.48;100.00;62369.91;5030834;28;20021;-64
2023/07/25 02:27:18;;;;;;;14.15;3.78;;;;;;;-144.48;100.00;62369.91;5031568;28;20021;-67
2023/07/25 02:29:43;;;;;;;7.45;3.85;;;;;;;-144.48;100.00;62369.91;5030952;28;20109;-65
2023/07/25 02:32:08;;;;;;;6.90;3.67;;;;;;;-144.48;100.00;62369.91;5031826;28;20193;-66
2023/07/25 02:34:34;;;;;;;11.60;3.72;;;;;;;-144.48;100.00;62369.91;5023306;28;20057;-66
2023/07/25 02:36:59;;;;;;;9.48;3.63;;;;;;;-144.48;100.00;62369.91;5030695;28;20029;-67
2023/07/25 02:39:24;;;;;;;13.20;3.90;;;;;;;-144.48;100.00;62369.91;5031198;28;20025;-66
2023/07/25 02:41:50;;;;;;;14.15;4.38;;;;;;;-144.48;100.00;62369.91;5031227;28;20025;-67
2023/07/25 02:44:15;;;;;;;11.93;4.25;;;;;;;-144.48;100.00;62369.91;5030118;28;20068;-65
2023/07/25 02:46:40;;;;;;;9.85;4.20;;;;;;;-144.48;100.00;62369.91;5031545;28;20023;-66
2023/07/25 02:49:06;;;;;;;7.30;4.32;;;;;;;-144.48;100.00;62369.91;5030812;28;20108;-63
2023/07/25 02:51:31;;;;;;;11.63;5.10;;;;;;;-144.48;100.00;62369.91;5030699;28;20041;-63
2023/07/25 02:53:57;;;;;;;11.63;5.07;;;;;;;-144.48;100.00;62369.91;5030077;28;20068;-67
2023/07/25 02:56:22;;;;;;;11.10;5.63;;;;;;;-144.48;100.00;62369.91;5031130;28;20040;-65
2023/07/25 02:58:48;;;;;;;17.92;5.50;;;;;;;-144.48;100.00;62369.91;5030440;28;20037;-67
2023/07/25 03:01:14;;;;;;;11.73;5.35;;;;;;;-144.48;100.00;62369.91;5030810;28;20030;-66
2023/07/25 03:03:39;;;;;;;9.23;5.28;;;;;;;-144.48;100.00;62369.91;5029989;28;20052;-67
2023/07/25 03:06:04;;;;;;;11.95;5.53;;;;;;;-144.48;100.00;62369.91;5030327;28;20036;-67
2023/07/25 03:08:30;;;;;;;9.52;5.85;;;;;;;-144.48;100.00;62369.91;5009519;28;20025;-66
2023/07/25 03:10:55;;;;;;;13.25;5.32;;;;;;;-144.48;100.00;62369.91;5029747;28;20522;-63
2023/07/25 03:13:20;;;;;;;10.98;5.57;;;;;;;-144.48;100.00;62369.91;5029756;28;20029;-62
2023/07/25 03:15:46;;;;;;;9.15;5.35;;;;;;;-144.48;100.00;62369.91;5030508;28;20029;-67
2023/07/25 03:18:11;;;;;;;9.98;5.15;;;;;;;-144.48;100.00;62369.91;5012885;28;20025;-65
2023/07/25 03:20:36;;;;;;;15.75;5.95;;;;;;;-144.48;100.00;62369.91;5030279;28;20116;-66
2023/07/25 03:23:02;;;;;;;13.52;5.78;;;;;;;-144.48;100.00;62369.91;5029695;28;20029;-66
2023/07/25 03:25:27;;;;;;;15.90;5.55;;;;;;;-144.48;100.00;62369.91;5029968;28;20017;-67
2023/07/25 03:27:52;;;;;;;11.77;4.95;;;;;;;-144.48;100.00;62369.91;5030089;28;20029;-67
2023/07/25 03:30:18;;;;;;;17.30;5.93;;;;;;;-144.48;100.00;62369.91;5029789;28;20033;-66
2023/07/25 03:32:43;;;;;;;8.48;5.35;;;;;;;-144.48;100.00;62369.91;5029930;28;20036;-65
2023/07/25 03:35:09;;;;;;;19.25;6.25;;;;;;;-144.48;100.00;62369.91;5022300;28;20022;-67
2023/07/25 03:37:34;;;;;;;10.80;5.03;;;;;;;-144.48;100.00;62369.91;5029478;28;20048;-62
2023/07/25 03:40:00;;;;;;;10.30;5.28;;;;;;;-144.48;100.00;62369.91;5030360;28;20391;-63
2023/07/25 03:42:25;;;;;;;8.70;5.22;;;;;;;-144.48;100.00;62369.91;5030061;28;20018;-67
2023/07/25 03:44:51;;;;;;;11.10;5.40;;;;;;;-144.48;100.00;62369.91;5029200;28;20468;-65
2023/07/25 03:47:16;;;;;;;17.00;6.07;;;;;;;-144.48;100.00;62369.91;5030068;28;20451;-66
2023/07/25 03:49:41;;;;;;;14.63;4.82;;;;;;;-144.48;100.00;62369.91;5029670;28;20087;-67
2023/07/25 03:52:07;;;;;;;8.00;5.30;;;;;;;-144.48;100.00;62369.91;5029312;28;20033;-66
2023/07/25 03:54:33;;;;;;;11.35;6.03;;;;;;;-144.48;100.00;62369.91;5029160;28;20017;-67
2023/07/25 03:56:58;;;;;;;12.48;4.30;;;;;;;-144.48;100.00;62369.91;5030027;28;20068;-66
2023/07/25 03:59:23;;;;;;;8.80;4.40;;;;;;;-144.48;100.00;62369.91;5029608;28;20448;-64
2023/07/25 04:01:49;;;;;;;11.52;4.95;;;;;;;-144.48;100.00;62369.91;5030056;28;20064;-63
2023/07/25 04:04:14;;;;;;;10.40;4.88;;;;;;;-144.48;100.00;62369.91;5029128;28;20017;-66
2023/07/25 04:06:39;;;;;;;12.52;4.43;;;;;;;-144.48;100.00;62369.91;5029271;28;20026;-62
2023/07/25 04:09:05;;;;;;;10.13;5.07;;;;;;;-144.48;100.00;62369.91;5023520;28;20028;-65
2023/07/25 04:11:31;;;;;;;14.20;6.20;;;;;;;-144.48;100.00;62369.91;5029648;28;20070;-67
2023/07/25 04:13:56;;;;;;;11.00;5.10;;;;;;;-144.48;100.00;62369.91;5028560;28;20120;-67
2023/07/25 04:16:22;;;;;;;14.18;4.80;;;;;;;-144.48;100.00;62369.91;5029557;28;20505;-66
2023/07/25 04:18:47;;;;;;;14.70;5.70;;;;;;;-144.48;100.00;62369.91;5029808;28;20032;-66
2023/07/25 04:21:13;;;;;;;12.25;5.65;;;;;;;-144.48;100.00;62369.91;5028886;28;20029;-62
2023/07/25 04:23:38;;;;;;;14.73;5.72;;;;;;;-144.48;100.00;62369.91;5010678;28;20034;-63
2023/07/25 04:26:03;;;;;;;14.10;5.63;;;;;;;-144.48;100.00;62369.91;5029849;28;20037;-66
2023/07/25 04:28:29;;;;;;;13.32;5.57;;;;;;;-144.48;100.00;62369.91;5029352;28;20506;-64
2023/07/25 04:30:54;;;;;;;10.02;5.03;;;;;;;-144.48;100.00;62369.91;5029337;28;20076;-66
2023/07/25 04:33:19;;;;;;;14.40;5.57;;;;;;;-144.48;100.00;62369.91;5029080;28;20029;-66
2023/07/25 04:35:45;;;;;;;12.38;6.13;;;;;;;-144.48;100.00;62369.91;5021391;28;20032;-67
2023/07/25 04:38:14;;;;;;;13.98;5.80;;;;;;;-144.48;100.00;62369.91;5028797;28;20515;-67
2023/07/25 04:40:40;;;;;;;7.57;5.55;;;;;;;-144.48;100.00;62369.91;5029334;28;20083;-67
2023/07/25 04:43:05;;;;;;;15.27;6.05;;;;;;;-144.48;100.00;62369.91;5029183;28;20048;-67
2023/07/25 04:45:31;;;;;;;18.02;6.35;;;;;;;-144.48;100.00;62369.91;5028849;28;20472;-68
2023/07/25 04:47:56;;;;;;;16.45;6.78;;;;;;;-144.48;100.00;62369.91;5030019;28;20030;-66
2023/07/25 04:50:21;;;;;;;19.00;6.15;;;;;;;-144.48;100.00;62369.91;5028617;28;20017;-65
2023/07/25 04:52:47;;;;;;;11.18;6.13;;;;;;;-144.48;100.00;62369.91;5028819;28;20041;-67
2023/07/25 04:55:12;;;;;;;8.95;5.20;;;;;;;-144.48;100.00;62369.91;5010725;28;20060;-65
2023/07/25 04:57:38;;;;;;;11.80;5.03;;;;;;;-144.48;100.00;62369.91;5029349;28;20024;-64
2023/07/25 05:00:05;;;;;;;7.57;4.53;;;;;;;-144.48;100.00;62369.91;5010656;28;20028;-66
2023/07/25 05:02:31;;;;;;;15.07;4.50;;;;;;;-144.48;100.00;62369.91;5029076;28;20033;-64
2023/07/25 05:04:56;;;;;;;12.18;4.35;;;;;;;-144.48;100.00;62369.91;5010038;28;20029;-67
2023/07/25 05:07:21;;;;;;;8.35;3.63;;;;;;;-144.48;100.00;62369.91;5026921;28;20105;-66
2023/07/25 05:09:47;;;;;;;6.43;3.97;;;;;;;-144.48;100.00;62369.91;5024343;28;20112;-65
2023/07/25 05:12:13;;;;;;;9.25;4.45;;;;;;;-144.48;100.00;62369.91;5029141;28;20071;-64
2023/07/25 05:14:39;;;;;;;6.63;3.47;;;;;;;-144.48;100.00;62369.91;5027770;28;20029;-66
2023/07/25 05:17:05;;;;;;;8.95;3.60;;;;;;;-144.48;100.00;62369.91;5028928;28;20052;-65
2023/07/25 05:19:30;;;;;;;9.82;3.78;;;;;;;-144.48;100.00;62369.91;5028672;28;20060;-66
2023/07/25 05:21:56;;;;;;;6.93;3.40;;;;;;;-144.48;100.00;62369.91;5011084;28;20030;-66
2023/07/25 05:24:23;;;;;;;7.43;3.25;;;;;;;-144.48;100.00;62369.91;5028215;28;20036;-66
2023/07/25 05:26:49;;;;;;;10.98;3.10;;;;;;;-144.48;100.00;62369.91;5029049;28;20021;-67
2023/07/25 05:29:14;;;;;;;5.85;2.58;;;;;;;-144.48;100.00;62369.91;5028101;28;20095;-67
2023/07/25 05:31:39;;;;;;;7.30;2.30;;;;;;;-144.48;100.00;62369.91;5028906;28;20029;-67
2023/07/25 05:34:05;;;;;;;14.48;3.35;;;;;;;-144.48;100.00;62369.91;5023625;28;20037;-66
2023/07/25 05:36:30;;;;;;;9.00;2.28;;;;;;;-144.48;100.00;62369.91;5029257;28;20017;-67
2023/07/25 05:38:55;;;;;;;13.50;2.13;;;;;;;-144.48;100.00;62369.91;5032142;28;20422;-66
2023/07/25 05:41:21;;;;;;;6.18;2.20;;;;;;;-144.48;100.00;62369.91;5032683;28;20117;-65
2023/07/25 05:43:46;;;;;;;11.27;2.40;;;;;;;-144.48;100.00;62369.91;5013542;28;20120;-66
2023/07/25 05:46:13;;;;;;;7.80;2.50;;;;;;;-144.48;100.00;62369.91;5032465;28;20044;-64
2023/07/25 05:48:39;;;;;;;11.07;3.17;;;;;;;-144.48;100.00;62369.91;5032308;28;20025;-66
2023/07/25 05:51:04;;;;;;;7.60;2.30;;;;;;;-144.48;100.00;62369.91;5032705;28;20021;-66
2023/07/25 05:53:30;;;;;;;6.57;2.80;;;;;;;-144.48;100.00;62369.91;5031442;28;20021;-65
2023/07/25 05:55:55;;;;;;;9.07;2.75;;;;;;;-144.48;100.00;62369.91;5014743;28;20037;-65
2023/07/25 05:58:20;;;;;;;11.65;2.90;;;;;;;-144.48;100.00;62369.91;5031801;28;20112;-67
2023/07/25 06:00:47;;;;;;;5.88;2.33;;;;;;;-144.48;100.00;62369.91;5032224;28;20029;-66
2023/07/25 06:03:13;;;;;;;7.63;2.63;;;;;;;-144.48;100.00;62369.91;5031569;28;20025;-67
2023/07/25 06:05:39;;;;;;;4.32;2.42;;;;;;;-144.48;100.00;62369.91;5031237;28;20032;-65
2023/07/25 06:08:05;;;;;;;7.25;2.45;;;;;;;-144.48;100.00;62369.91;5027884;28;20021;-66
2023/07/25 06:10:31;;;;;;;10.93;2.47;;;;;;;-144.48;100.00;62369.91;5029410;28;20029;-62
2023/07/25 06:12:57;;;;;;;7.38;2.70;;;;;;;-144.48;100.00;62369.91;5032383;28;20373;-62
2023/07/25 06:15:22;;;;;;;9.85;2.53;;;;;;;-144.48;100.00;62369.91;5031042;28;20414;-65
2023/07/25 06:17:47;;;;;;;5.03;2.30;;;;;;;-144.48;100.00;62369.91;5031863;28;20459;-64
2023/07/25 06:20:13;;;;;;;6.10;2.90;;;;;;;-144.48;100.00;62369.91;5031591;28;20657;-66
2023/07/25 06:22:39;;;;;;;5.93;2.78;;;;;;;-144.48;100.00;62369.91;5030913;28;20091;-67
2023/07/25 06:25:07;;;;;;;9.55;3.15;;;;;;;-144.48;100.00;62369.91;5029898;28;20025;-67
2023/07/25 06:27:33;;;;;;;13.30;3.63;;;;;;;-144.48;100.00;62369.91;5013163;28;20021;-64
2023/07/25 06:29:58;;;;;;;8.27;2.90;;;;;;;-144.48;100.00;62369.91;5030455;28;20039;-65
2023/07/25 06:32:24;;;;;;;6.95;3.00;;;;;;;-144.48;100.00;62369.91;5012712;28;20026;-66
2023/07/25 06:34:49;;;;;;;8.43;3.05;;;;;;;-144.48;100.00;62369.91;5023588;28;20028;-67
2023/07/25 06:37:15;;;;;;;6.50;3.22;;;;;;;-144.48;100.00;62369.91;5030799;28;20022;-66
2023/07/25 06:39:40;;;;;;;9.82;3.75;;;;;;;-144.48;100.00;62369.91;5031652;28;20443;-63
2023/07/25 06:42:06;;;;;;;15.48;2.80;;;;;;;-144.48;100.00;62369.91;5013561;28;20017;-63
2023/07/25 06:44:31;;;;;;;7.25;2.47;;;;;;;-144.48;100.00;62369.91;5029991;28;20555;-67
2023/07/25 06:46:56;;;;;;;9.75;3.03;;;;;;;-144.48;100.00;62369.91;5029587;28;20025;-64
2023/07/25 06:49:22;;;;;;;7.75;2.45;;;;;;;-144.48;100.00;62369.91;5030984;28;20022;-67
2023/07/25 06:51:48;;;;;;;6.43;2.58;;;;;;;-144.48;100.00;62369.91;5030531;28;20033;-64
2023/07/25 06:54:14;;;;;;;5.53;2.28;;;;;;;-144.48;100.00;62369.91;5030293;28;20025;-67
2023/07/25 06:56:39;;;;;;;3.22;1.67;;;;;;;-144.48;100.00;62369.91;5031527;28;20391;-65
2023/07/25 06:59:05;;;;;;;7.07;2.40;;;;;;;-144.48;100.00;62369.91;5012760;28;20067;-65
2023/07/25 07:01:30;;;;;;;5.63;2.35;;;;;;;-144.48;100.00;62369.91;5012929;28;20083;-65
2023/07/25 07:03:56;;;;;;;12.25;2.55;;;;;;;-144.48;100.00;62369.91;5029586;28;20017;-66
2023/07/25 07:06:21;;;;;;;7.22;2.65;;;;;;;-144.48;100.00;62369.91;5031117;28;20091;-65
2023/07/25 07:08:46;;;;;;;9.15;2.20;;;;;;;-144.48;100.00;62369.91;5028530;28;20539;-66
2023/07/25 07:11:12;;;;;;;8.52;2.20;;;;;;;-144.48;100.00;62369.91;5031142;28;20025;-67
2023/07/25 07:13:37;;;;;;;4.47;2.20;;;;;;;-144.48;100.00;62369.91;5029719;28;20399;-65
2023/07/25 07:16:03;;;;;;;5.97;2.15;;;;;;;-144.48;100.00;62369.91;5030601;28;20032;-67
2023/07/25 07:18:28;;;;;;;8.15;2.15;;;;;;;-144.48;100.00;62369.91;5030684;28;20025;-67
2023/07/25 07:20:54;;;;;;;5.57;1.65;;;;;;;-144.48;100.00;62369.91;5030623;28;20468;-67
2023/07/25 07:23:19;;;;;;;6.32;2.20;;;;;;;-144.48;100.00;62369.91;5030978;28;20068;-64
2023/07/25 07:25:45;;;;;;;6.97;2.53;;;;;;;-144.48;100.00;62369.91;5030383;28;20108;-63
2023/07/25 07:28:11;;;;;;;7.15;2.72;;;;;;;-144.48;100.00;62369.91;5030490;28;20036;-67
2023/07/25 07:30:36;;;;;;;5.95;1.85;;;;;;;-144.48;100.00;62369.91;5030719;28;20017;-67
2023/07/25 07:33:01;;;;;;;8.55;2.30;;;;;;;-144.48;100.00;62369.91;5030061;28;20503;-66
2023/07/25 07:35:27;;;;;;;6.63;2.10;;;;;;;-144.48;100.00;62369.91;5022095;28;20071;-66
2023/07/25 07:37:52;;;;;;;10.38;2.70;;;;;;;-144.48;100.00;62369.91;5029796;28;20017;-68
2023/07/25 07:40:18;;;;;;;6.78;1.60;;;;;;;-144.48;100.00;62369.91;5031050;28;20124;-66
2023/07/25 07:42:43;;;;;;;5.68;1.55;;;;;;;-144.48;100.00;62369.91;5030555;28;20391;-66
2023/07/25 07:45:09;;;;;;;11.85;2.00;;;;;;;-144.48;100.00;62369.91;5029016;28;20083;-67
2023/07/25 07:47:34;;;;;;;7.38;1.50;;;;;;;-144.48;100.00;62369.91;5030246;28;20017;-67
2023/07/25 07:49:59;;;;;;;12.77;2.00;;;;;;;-144.48;100.00;62369.91;5029508;28;20166;-66
2023/07/25 07:52:26;;;;;;;5.65;1.52;;;;;;;-144.48;100.00;62369.91;5030155;28;20036;-66
2023/07/25 07:54:51;;;;;;;6.75;1.80;;;;;;;-144.48;100.00;62369.91;5028849;28;20064;-65
2023/07/25 07:57:17;;;;;;;5.93;1.35;;;;;;;-144.48;100.00;62369.91;5029651;28;20487;-67
2023/07/25 07:59:44;;;;;;;6.15;1.85;;;;;;;-144.48;100.00;62369.91;5011424;28;20025;-66
2023/07/25 08:02:09;;;;;;;8.18;1.75;;;;;;;-144.48;100.00;62369.91;5029905;28;20029;-67
2023/07/25 08:04:34;;;;;;;3.55;1.88;;;;;;;-144.48;100.00;62369.91;5028171;28;20506;-67
2023/07/25 08:07:00;;;;;;;6.90;2.25;;;;;;;-144.48;100.00;62369.91;5027702;28;20052;-63
2023/07/25 08:09:25;;;;;;;6.25;1.70;;;;;;;-144.48;100.00;62369.91;5029756;28;20110;-65
2023/07/25 08:11:51;;;;;;;6.43;1.60;;;;;;;-144.48;100.00;62369.91;5021879;28;20491;-66
2023/07/25 08:14:16;;;;;;;11.32;1.92;;;;;;;-144.48;100.00;62369.91;5028655;28;20052;-66
2023/07/25 08:16:41;;;;;;;4.45;1.25;;;;;;;-144.48;100.00;62369.91;5029968;28;20032;-67
2023/07/25 08:19:07;;;;;;;3.63;1.38;;;;;;;-144.48;100.00;62369.91;5029241;28;20029;-64
2023/07/25 08:21:32;;;;;;;4.43;1.10;;;;;;;-144.48;100.00;62369.91;5029397;28;20029;-67
2023/07/25 08:23:58;;;;;;;10.10;2.70;;;;;;;-144.48;100.00;62369.91;5029237;28;20048;-64
2023/07/25 08:26:23;;;;;;;5.07;1.42;;;;;;;-144.48;100.00;62369.91;5030153;28;20041;-64
2023/07/25 08:28:48;;;;;;;3.85;1.45;;;;;;;-144.48;100.00;62369.91;5029225;28;20541;-66
2023/07/25 08:31:14;;;;;;;11.02;1.73;;;;;;;-144.48;100.00;62369.91;5029497;28;20029;-67
2023/07/25 08:33:42;;;;;;;6.53;1.73;;;;;;;-144.48;100.00;62369.91;5027870;28;20033;-63
2023/07/25 08:36:08;;;;;;;4.35;1.88;;;;;;;-144.48;100.00;62369.91;5005549;28;20237;-65
2023/07/25 08:38:33;;;;;;;7.15;1.58;;;;;;;-144.48;100.00;62369.91;5028814;28;20034;-66
2023/07/25 08:41:08;;;;;;;6.22;1.80;;;;;;;-144.48;100.00;62369.91;5030048;28;20034;-66
2023/07/25 08:43:37;;;;;;;5.53;1.50;;;;;;;-144.48;100.00;62369.91;5028664;28;20030;-65
2023/07/25 08:46:10;;;;;;;5.10;1.60;;;;;;;-144.48;100.00;62369.91;5029730;28;20410;-65
2023/07/25 08:48:40;;;;;;;17.73;3.88;;;;;;;-144.48;100.00;62369.91;5029215;28;20053;-66
2023/07/25 08:51:13;;;;;;;4.65;1.70;;;;;;;-144.48;100.00;62369.91;5011111;28;20053;-65
2023/07/25 08:53:42;;;;;;;10.30;2.00;;;;;;;-144.48;100.00;62369.91;5027942;28;20034;-66
2023/07/25 08:56:07;;;;;;;6.63;1.42;;;;;;;-144.48;100.00;62369.91;5029587;28;20030;-65
2023/07/25 08:58:34;;;;;;;5.35;1.65;;;;;;;-144.48;100.00;62369.91;5028726;28;20032;-66
2023/07/25 09:01:00;;;;;;;11.00;2.10;;;;;;;-144.48;100.00;62369.91;5028712;28;20095;-67
2023/07/25 09:03:26;;;;;;;5.45;1.92;;;;;;;-144.48;100.00;62369.91;5010838;28;20482;-67
2023/07/25 09:05:51;;;;;;;5.35;1.90;;;;;;;-144.48;100.00;62369.91;5028367;28;20075;-65
2023/07/25 09:08:17;;;;;;;3.90;1.70;;;;;;;-144.48;100.00;62369.91;5026938;28;20479;-63
2023/07/25 09:10:44;;;;;;;4.50;1.48;;;;;;;-144.48;100.00;62369.91;5032028;28;20076;-66
2023/07/25 09:13:10;;;;;;;8.02;1.85;;;;;;;-144.48;100.00;62369.91;5032180;28;20387;-66
2023/07/25 09:15:35;;;;;;;10.13;1.67;;;;;;;-144.48;100.00;62369.91;5014714;28;20026;-65
2023/07/25 09:18:01;;;;;;;2.75;1.40;;;;;;;-144.48;100.00;62369.91;5032901;28;20017;-65
2023/07/25 09:20:27;;;;;;;7.07;1.85;;;;;;;-144.48;100.00;62369.91;5032424;28;20021;-68
2023/07/25 09:22:52;;;;;;;8.88;1.95;;;;;;;-144.48;100.00;62369.91;5032495;28;20539;-67
2023/07/25 09:25:17;;;;;;;4.05;2.15;;;;;;;-144.48;100.00;62369.91;5032077;28;20104;-66
2023/07/25 09:27:45;;;;;;;3.25;1.70;;;;;;;-144.48;100.00;62369.91;5032683;28;20411;-67
2023/07/25 09:30:12;;;;;;;4.20;1.70;;;;;;;-144.48;100.00;62369.91;5032225;28;20498;-63
2023/07/25 09:32:38;;;;;;;7.47;1.88;;;;;;;-144.48;100.00;62369.91;5032623;28;20053;-66
2023/07/25 09:35:08;;;;;;;5.93;1.80;;;;;;;-144.48;100.00;62369.91;5024436;28;20112;-68
2023/07/25 09:37:33;;;;;;;3.45;1.80;;;;;;;-144.48;100.00;62369.91;5032027;28;20359;-66
2023/07/25 09:39:58;;;;;;;6.03;1.90;;;;;;;-144.48;100.00;62369.91;5032440;28;20048;-67
2023/07/25 09:42:25;;;;;;;6.60;1.80;;;;;;;-144.48;100.00;62369.91;5032943;28;20482;-65
2023/07/25 09:44:52;;;;;;;5.40;1.80;;;;;;;-144.48;100.00;62369.91;5031470;28;20024;-67
2023/07/25 09:47:26;;;;;;;6.88;2.10;;;;;;;-144.48;100.00;62369.91;5032386;28;20022;-63
2023/07/25 09:49:52;;;;;;;11.82;2.13;;;;;;;-144.48;100.00;62369.91;5031628;28;20022;-67
2023/07/25 09:52:18;;;;;;;4.32;1.80;;;;;;;-144.48;100.00;62369.91;5018914;28;20395;-66
2023/07/25 09:54:44;;;;;;;6.57;1.80;;;;;;;-144.48;100.00;62369.91;5031451;28;20021;-68
2023/07/25 09:57:10;;;;;;;20.30;2.03;;;;;;;-144.48;100.00;62369.91;5032575;28;20017;-65
2023/07/25 09:59:35;;;;;;;4.18;1.80;;;;;;;-144.48;100.00;62369.91;5014356;28;20491;-68
2023/07/25 10:02:01;;;;;;;7.68;2.50;;;;;;;-144.48;100.00;62369.91;5032128;28;20499;-66
2023/07/25 10:04:27;;;;;;;5.40;2.25;;;;;;;-144.48;100.00;62369.91;5030573;28;20108;-67
2023/07/25 10:06:53;;;;;;;6.32;1.80;;;;;;;-144.48;100.00;62369.91;5030253;28;20511;-65
2023/07/25 10:09:19;;;;;;;4.60;1.60;;;;;;;-144.48;100.00;62369.91;5031518;28;20026;-66
2023/07/25 10:11:45;;;;;;;6.35;2.20;;;;;;;-144.48;100.00;62369.91;5031584;28;20036;-65
2023/07/25 10:14:11;;;;;;;5.70;1.65;;;;;;;-144.48;100.00;62369.91;5030860;28;20029;-66
2023/07/25 10:16:38;;;;;;;4.88;2.00;;;;;;;-144.48;100.00;62369.91;5032132;28;20395;-67
2023/07/25 10:19:05;;;;;;;10.75;2.00;;;;;;;-144.48;100.00;62369.91;5031464;28;20040;-67
2023/07/25 10:21:52;;;;;;;6.15;2.05;;;;;;;-144.48;100.00;62369.91;5031156;28;20024;-67
2023/07/25 10:24:21;;;;;;;5.50;2.00;;;;;;;-144.48;100.00;62369.91;5031037;28;20029;-66
2023/07/25 10:26:59;;;;;;;7.50;1.90;;;;;;;-144.48;100.00;62369.91;5031716;28;20087;-65
2023/07/25 10:29:37;;;;;;;4.80;1.90;;;;;;;-144.48;100.00;62369.91;5030629;28;20025;-65
2023/07/25 10:32:03;;;;;;;7.32;2.20;;;;;;;-144.48;100.00;62369.91;5031230;28;20040;-67
2023/07/25 10:35:06;;;;;;;3.90;1.65;;;;;;;-144.48;100.00;62369.91;5023477;28;20073;-63
2023/07/25 10:37:38;;;;;;;4.43;1.48;;;;;;;-144.48;100.00;62369.91;5030417;28;20297;-67
2023/07/25 10:40:12;;;;;;;5.57;1.50;;;;;;;-144.48;100.00;62369.91;5031301;28;20060;-66
2023/07/25 10:42:52;;;;;;;6.57;1.63;;;;;;;-144.48;100.00;62369.91;5031616;28;20102;-65
2023/07/25 10:45:29;;;;;;;4.03;1.67;;;;;;;-144.48;100.00;62369.91;5030111;28;20021;-64
2023/07/25 10:47:58;;;;;;;2.95;1.40;;;;;;;-144.48;100.00;62369.91;5031426;28;20032;-66
2023/07/25 10:50:27;;;;;;;;;;;;;;;-144.48;100.00;62369.91;5031045;28;20029;-67
2023/07/25 10:52:52;;;;;;;6.65;1.42;;;;;;;-144.48;100.00;62369.91;5030372;28;19912;-66
2023/07/25 10:55:19;;;;;;;3.55;1.58;;;;;;;-144.48;100.00;62369.91;5030223;28;20095;-66
2023/07/25 10:58:12;;;;;;;2.15;1.30;;;;;;;-144.48;100.00;62369.91;5031172;28;20112;-63
2023/07/25 11:00:38;;;;;;;4.25;1.42;;;;;;;-144.48;100.00;62369.91;5019726;28;20472;-68
2023/07/25 11:03:29;;;;;;;6.43;2.10;;;;;;;-144.48;100.00;62369.91;5030832;28;20332;-66